Time;durP1;ratioP1;P1;durP2;ratioP2;P2;SDS_P1;SDS_P2;PMS_P1;PMS_P2;Temp;Humidity;BMP_temperature;BMP_pressure;BME280_temperature;BME280_humidity;BME280_pressure;Samples;Min_cycle;Max_cycle;Signal;HPM_P1;HPM_P2
2023/05/09 00:01:49;;;;;;;12.20;5.60;;;;;;;4.86;69.08;101122.54;105804;1259;68334;-75
2023/05/09 00:04:38;;;;;;;14.10;5.70;;;;;;;4.88;69.07;101127.58;106003;1262;72415;-74
2023/05/09 00:07:26;;;;;;;12.50;5.50;;;;;;;4.93;68.84;101128.10;105966;1257;59606;-74
2023/05/09 00:10:16;;;;;;;13.90;6.30;;;;;;;5.08;68.12;101129.81;106547;1255;59612;-75
2023/05/09 00:13:05;;;;;;;12.00;5.40;;;;;;;5.18;67.51;101128.95;107751;1257;72247;-74
2023/05/09 00:15:56;;;;;;;12.00;5.50;;;;;;;5.24;67.07;101125.02;107011;1263;66829;-75
2023/05/09 00:18:46;;;;;;;13.10;5.60;;;;;;;5.34;66.40;101126.88;106600;1256;71247;-75
2023/05/09 00:21:34;;;;;;;11.20;5.80;;;;;;;5.45;65.39;101121.89;105878;1257;59817;-74
2023/05/09 00:24:23;;;;;;;14.90;5.80;;;;;;;5.55;64.58;101119.91;106029;1256;61120;-75
2023/05/09 00:27:11;;;;;;;13.80;5.20;;;;;;;5.63;63.77;101119.77;105668;1263;73290;-73
2023/05/09 00:30:00;;;;;;;12.40;5.00;;;;;;;5.70;62.95;101121.10;105757;1263;66689;-73
2023/05/09 00:32:48;;;;;;;12.30;5.10;;;;;;;5.74;62.60;101118.08;106526;1262;72472;-71
2023/05/09 00:35:36;;;;;;;12.30;5.20;;;;;;;5.80;62.26;101116.27;106837;1259;59824;-74
2023/05/09 00:38:24;;;;;;;11.00;4.80;;;;;;;5.86;61.64;101115.84;106934;1260;59454;-73
2023/05/09 00:41:12;;;;;;;12.70;4.80;;;;;;;5.92;61.24;101115.77;105667;1262;72665;-75
2023/05/09 00:44:02;;;;;;;12.10;4.70;;;;;;;5.97;60.80;101117.17;105714;1262;66674;-73
2023/05/09 00:46:51;;;;;;;14.10;4.60;;;;;;;6.04;60.36;101113.90;105720;1263;71674;-73
2023/05/09 00:49:39;;;;;;;10.20;4.70;;;;;;;6.08;60.35;101117.09;105736;1255;59641;-74
2023/05/09 00:52:27;;;;;;;10.90;4.90;;;;;;;6.12;59.85;101120.10;105737;1254;60364;-75
2023/05/09 00:55:16;;;;;;;12.70;4.80;;;;;;;6.16;59.85;101117.08;105830;1260;73314;-73
2023/05/09 00:58:05;;;;;;;10.60;4.30;;;;;;;6.20;59.41;101116.40;105802;1259;67595;-73
2023/05/09 01:00:53;;;;;;;10.70;5.00;;;;;;;6.21;59.50;101115.48;105814;1255;71201;-73
2023/05/09 01:03:42;;;;;;;12.80;4.50;;;;;;;6.22;59.22;101112.46;105642;1263;59717;-73
2023/05/09 01:06:55;;;;;;;12.70;5.10;;;;;;;6.25;58.91;101113.20;105687;1256;60123;-74
2023/05/09 01:10:14;;;;;;;11.50;4.50;;;;;;;6.29;59.18;101108.98;106044;1259;71472;-74
2023/05/09 01:13:11;;;;;;;12.10;4.40;;;;;;;6.30;59.01;101108.55;106113;1259;66367;-74
2023/05/09 01:16:19;;;;;;;11.70;4.70;;;;;;;6.33;58.89;101106.17;105971;1255;71545;-72
2023/05/09 01:19:44;;;;;;;11.20;4.70;;;;;;;6.38;58.49;101106.64;106203;1260;59712;-74
2023/05/09 01:22:40;;;;;;;11.20;4.00;;;;;;;6.43;57.97;101102.69;104473;1262;1002995;-74
2023/05/09 01:25:37;;;;;;;13.10;4.90;;;;;;;6.47;57.87;101106.07;105934;1260;73118;-72
2023/05/09 01:29:26;;;;;;;10.40;4.20;;;;;;;6.51;57.54;101104.67;106002;1254;68008;-72
2023/05/09 01:32:23;;;;;;;9.90;4.20;;;;;;;6.53;57.66;101106.37;105789;1259;71944;-72
2023/05/09 01:35:15;;;;;;;9.80;4.40;;;;;;;6.55;57.63;101103.60;105063;1255;1002737;-74
2023/05/09 01:38:12;;;;;;;10.70;4.00;;;;;;;6.56;57.75;101099.88;105740;1254;60163;-75
2023/05/09 01:41:04;;;;;;;9.60;4.40;;;;;;;6.58;57.66;101099.77;105834;1255;71825;-73
2023/05/09 01:43:54;;;;;;;10.00;4.30;;;;;;;6.58;58.13;101099.06;105914;1255;66487;-74
2023/05/09 01:46:45;;;;;;;12.50;4.80;;;;;;;6.59;57.74;101100.44;105848;1263;71363;-72
2023/05/09 01:49:37;;;;;;;9.40;4.20;;;;;;;6.58;58.15;101099.62;106002;1257;59588;-74
2023/05/09 01:52:27;;;;;;;11.30;4.20;;;;;;;6.60;57.93;101103.55;105846;1254;60078;-70
2023/05/09 01:55:16;;;;;;;10.30;4.00;;;;;;;6.65;57.99;101105.81;105727;1254;73091;-69
2023/05/09 01:58:05;;;;;;;10.90;4.40;;;;;;;6.72;57.56;101099.66;105992;1254;66646;-73
2023/05/09 02:00:53;;;;;;;9.00;4.10;;;;;;;6.78;57.40;101097.29;106138;1254;71381;-74
2023/05/09 02:03:46;;;;;;;11.40;4.80;;;;;;;6.80;57.19;101094.88;105832;1260;59657;-73
2023/05/09 02:06:35;;;;;;;10.70;4.50;;;;;;;6.85;57.40;101094.90;106116;1254;60212;-72
2023/05/09 02:09:24;;;;;;;8.90;4.10;;;;;;;6.85;57.19;101093.77;105669;1263;71764;-72
2023/05/09 02:12:12;;;;;;;8.70;3.70;;;;;;;6.85;57.18;101094.52;105598;1263;66582;-73
2023/05/09 02:15:00;;;;;;;10.90;4.80;;;;;;;6.83;57.32;101093.70;105693;1257;71357;-72
2023/05/09 02:17:50;;;;;;;9.60;4.30;;;;;;;6.79;57.42;101094.77;105731;1254;59904;-70
2023/05/09 02:20:39;;;;;;;8.70;4.20;;;;;;;6.76;57.50;101094.73;105822;1260;60179;-73
2023/05/09 02:23:27;;;;;;;11.50;4.50;;;;;;;6.70;57.64;101098.73;105820;1254;72178;-72
2023/05/09 02:26:16;;;;;;;11.60;4.80;;;;;;;6.62;57.77;101102.03;105609;1254;67209;-72
2023/05/09 02:29:06;;;;;;;11.00;4.70;;;;;;;6.55;58.29;101098.85;105572;1260;71105;-72
2023/05/09 02:31:58;;;;;;;8.60;3.90;;;;;;;6.46;58.68;101105.92;105979;1256;59725;-70
2023/05/09 02:34:48;;;;;;;13.70;4.90;;;;;;;6.41;59.29;101105.10;105711;1254;60048;-70
2023/05/09 02:37:36;;;;;;;8.40;4.40;;;;;;;6.39;59.66;101103.61;105760;1254;71865;-72
2023/05/09 02:40:27;;;;;;;11.10;4.20;;;;;;;6.36;59.65;101104.12;105749;1263;66300;-74
2023/05/09 02:43:17;;;;;;;13.40;4.60;;;;;;;6.34;59.57;101106.47;105821;1260;71418;-74
2023/05/09 02:46:09;;;;;;;11.00;4.80;;;;;;;6.33;59.72;101103.71;106181;1257;59650;-73
2023/05/09 02:49:01;;;;;;;11.00;4.80;;;;;;;6.30;59.69;101105.75;106092;1255;59593;-73
2023/05/09 02:51:51;;;;;;;11.00;4.60;;;;;;;6.28;59.82;101105.13;106069;1254;72805;-73
2023/05/09 02:54:40;;;;;;;10.70;5.30;;;;;;;6.26;60.15;101104.34;107473;1254;68920;-74
2023/05/09 02:57:33;;;;;;;10.60;4.50;;;;;;;6.26;60.07;101104.50;108262;1263;72402;-73
2023/05/09 03:00:24;;;;;;;12.10;5.00;;;;;;;6.26;60.13;101106.63;107624;1257;59556;-74
2023/05/09 03:03:16;;;;;;;12.00;5.40;;;;;;;6.27;60.50;101103.26;107852;1257;59850;-73
2023/05/09 03:06:11;;;;;;;11.00;4.80;;;;;;;6.27;60.46;101107.98;105236;1266;1003095;-72
2023/05/09 03:09:01;;;;;;;13.00;4.90;;;;;;;6.29;60.24;101108.25;106012;1263;67895;-74
2023/05/09 03:11:54;;;;;;;12.60;5.20;;;;;;;6.30;60.48;101109.61;105699;1261;71188;-72
2023/05/09 03:14:43;;;;;;;12.80;5.30;;;;;;;6.32;60.52;101112.18;105693;1264;59649;-70
2023/05/09 03:17:34;;;;;;;11.60;5.40;;;;;;;6.34;60.46;101106.45;105695;1258;60052;-72
2023/05/09 03:20:22;;;;;;;10.70;4.70;;;;;;;6.37;60.60;101107.73;105721;1257;73056;-71
2023/05/09 03:23:10;;;;;;;11.70;5.40;;;;;;;6.39;60.49;101110.30;105705;1267;66810;-70
2023/05/09 03:25:59;;;;;;;12.80;5.50;;;;;;;6.41;60.73;101107.90;105403;1260;73195;-70
2023/05/09 03:28:48;;;;;;;13.50;5.80;;;;;;;6.44;60.85;101111.33;105465;1260;59636;-70
2023/05/09 03:31:36;;;;;;;12.70;5.50;;;;;;;6.49;60.53;101112.33;106498;1261;59548;-71
2023/05/09 03:34:25;;;;;;;12.00;5.70;;;;;;;6.57;60.35;101111.80;105715;1263;73530;-71
2023/05/09 03:37:15;;;;;;;12.30;5.30;;;;;;;6.65;60.44;101110.92;105683;1257;67829;-71
2023/05/09 03:40:05;;;;;;;12.40;5.20;;;;;;;6.73;60.10;101111.44;105656;1263;70475;-70
2023/05/09 03:42:58;;;;;;;12.20;5.00;;;;;;;6.83;59.90;101112.21;105669;1262;59705;-69
2023/05/09 03:45:46;;;;;;;12.10;5.80;;;;;;;6.91;59.75;101111.36;105608;1260;59700;-72
2023/05/09 03:48:34;;;;;;;12.30;5.30;;;;;;;6.99;59.37;101110.29;105656;1260;71484;-72
2023/05/09 03:51:22;;;;;;;15.10;5.70;;;;;;;7.08;59.18;101112.67;105688;1264;67893;-71
2023/05/09 03:54:11;;;;;;;14.30;5.40;;;;;;;7.18;58.98;101109.39;105603;1262;72438;-71
2023/05/09 03:56:59;;;;;;;13.40;5.20;;;;;;;7.26;58.77;101112.00;105603;1262;59768;-74
2023/05/09 03:59:50;;;;;;;13.60;6.30;;;;;;;7.37;58.28;101112.19;105740;1258;59654;-74
2023/05/09 04:02:41;;;;;;;15.00;5.10;;;;;;;7.47;57.86;101111.91;105995;1258;73139;-74
2023/05/09 04:05:35;;;;;;;14.70;5.20;;;;;;;7.57;57.49;101116.38;105581;1263;67936;-75
2023/05/09 04:08:23;;;;;;;13.80;5.80;;;;;;;7.67;57.08;101119.09;105724;1266;71263;-73
2023/05/09 04:11:12;;;;;;;12.50;5.40;;;;;;;7.77;56.86;101119.63;105679;1260;59794;-72
2023/05/09 04:14:05;;;;;;;13.90;5.00;;;;;;;7.87;56.75;101123.79;105631;1260;59617;-70
2023/05/09 04:16:55;;;;;;;14.10;5.30;;;;;;;7.96;56.48;101125.45;105513;1261;72970;-70
2023/05/09 04:19:44;;;;;;;13.40;5.40;;;;;;;8.05;56.06;101125.69;105643;1263;67681;-72
2023/05/09 04:22:33;;;;;;;14.20;5.80;;;;;;;8.14;55.79;101125.21;105182;1264;71154;-69
2023/05/09 04:25:22;;;;;;;11.00;5.10;;;;;;;8.24;55.42;101125.63;105378;1267;59894;-70
2023/05/09 04:28:14;;;;;;;12.50;5.20;;;;;;;8.33;55.21;101124.61;105450;1263;60368;-72
2023/05/09 04:31:11;;;;;;;14.10;6.00;;;;;;;8.44;54.89;101128.30;106485;1260;72990;-74
2023/05/09 04:34:03;;;;;;;13.50;5.60;;;;;;;8.57;54.54;101127.86;105714;1267;67977;-71
2023/05/09 04:36:54;;;;;;;13.90;5.20;;;;;;;8.67;54.16;101128.70;105218;1268;73800;-71
2023/05/09 04:39:42;;;;;;;13.20;5.10;;;;;;;8.79;53.81;101132.02;105382;1260;59752;-71
2023/05/09 04:42:38;;;;;;;15.40;6.10;;;;;;;8.89;53.38;101126.51;105361;1265;59572;-69
2023/05/09 04:45:27;;;;;;;13.20;5.20;;;;;;;9.00;53.40;101129.32;105343;1261;72869;-71
2023/05/09 04:48:17;;;;;;;16.00;5.40;;;;;;;9.10;53.10;101126.66;105804;1260;65966;-78
2023/05/09 04:51:06;;;;;;;16.10;5.50;;;;;;;9.19;52.61;101127.17;105703;1261;71696;-77
2023/05/09 04:53:54;;;;;;;15.70;5.60;;;;;;;9.31;52.95;101123.89;105862;1257;59676;-77
2023/05/09 04:56:45;;;;;;;14.30;6.00;;;;;;;9.43;52.20;101128.71;106251;1261;60153;-75
2023/05/09 04:59:37;;;;;;;16.30;5.40;;;;;;;9.55;52.35;101126.45;106062;1263;73108;-75
2023/05/09 05:02:26;;;;;;;13.10;5.40;;;;;;;9.70;52.13;101131.30;104634;1261;1002837;-79
2023/05/09 05:05:15;;;;;;;16.20;6.00;;;;;;;9.91;51.13;101134.15;106167;1256;72543;-78
2023/05/09 05:08:04;;;;;;;16.20;5.90;;;;;;;10.26;51.17;101130.88;106471;1256;59705;-78
2023/05/09 05:10:54;;;;;;;21.40;6.40;;;;;;;11.30;49.30;101127.13;106786;1257;59712;-81
2023/05/09 05:13:44;;;;;;;17.50;6.70;;;;;;;12.83;46.56;101124.80;106439;1260;71735;-79
2023/05/09 05:16:33;;;;;;;16.80;6.60;;;;;;;14.42;42.75;101125.49;106625;1263;68062;-80
2023/05/09 05:19:22;;;;;;;15.90;5.80;;;;;;;15.96;39.43;101115.17;106650;1256;72608;-78
2023/05/09 05:22:12;;;;;;;14.20;5.60;;;;;;;17.39;36.12;101110.98;106022;1256;59823;-78
2023/05/09 05:25:03;;;;;;;13.60;5.40;;;;;;;18.49;33.86;101111.09;106106;1258;60411;-83
2023/05/09 05:27:52;;;;;;;11.60;4.80;;;;;;;19.52;31.89;101101.96;106236;1258;73124;-82
2023/05/09 05:30:42;;;;;;;15.00;5.20;;;;;;;20.53;30.97;101100.44;106123;1257;66253;-81
2023/05/09 05:33:30;;;;;;;16.10;5.50;;;;;;;21.47;28.24;101094.48;106115;1256;72596;-82
2023/05/09 05:36:19;;;;;;;12.10;5.60;;;;;;;22.26;27.27;101092.83;106391;1257;59645;-80
2023/05/09 05:39:08;;;;;;;14.10;5.40;;;;;;;22.85;26.06;101085.86;106609;1257;61135;-79
2023/05/09 05:41:56;;;;;;;14.90;5.30;;;;;;;23.62;25.41;101091.86;107662;1260;73252;-81
2023/05/09 05:44:44;;;;;;;14.40;5.00;;;;;;;24.10;24.52;101075.95;106936;1264;234736;-82
2023/05/09 05:47:36;;;;;;;17.00;5.60;;;;;;;24.59;23.39;101083.63;106626;1260;71520;-80
2023/05/09 05:50:25;;;;;;;12.30;4.90;;;;;;;24.88;22.92;101087.98;106391;1259;59548;-82
2023/05/09 05:53:13;;;;;;;19.00;5.50;;;;;;;24.69;22.23;101086.20;106214;1260;60195;-79
2023/05/09 05:56:01;;;;;;;14.70;4.90;;;;;;;24.69;22.93;101085.20;105941;1266;73116;-79
2023/05/09 05:58:51;;;;;;;22.00;5.60;;;;;;;24.99;22.42;101086.45;105746;1260;66774;-80
2023/05/09 06:01:39;;;;;;;18.70;4.90;;;;;;;25.36;22.27;101083.72;105518;1264;72369;-80
2023/05/09 06:04:28;;;;;;;17.10;4.70;;;;;;;25.91;21.85;101085.38;105249;1276;59541;-79
2023/05/09 06:07:16;;;;;;;18.50;5.00;;;;;;;26.49;20.96;101086.06;105256;1271;61825;-80
2023/05/09 06:10:07;;;;;;;17.50;4.20;;;;;;;27.04;20.63;101083.28;105421;1267;74007;-80
2023/05/09 06:12:56;;;;;;;23.60;4.70;;;;;;;27.43;19.65;101083.35;105637;1264;66814;-80
2023/05/09 06:15:44;;;;;;;26.50;4.60;;;;;;;27.39;19.78;101081.80;105760;1264;72672;-81
2023/05/09 06:18:36;;;;;;;27.30;5.30;;;;;;;27.45;19.33;101079.86;105761;1262;59753;-81
2023/05/09 06:21:27;;;;;;;25.20;5.00;;;;;;;26.93;19.25;101082.92;105564;1262;60169;-79
2023/05/09 06:24:15;;;;;;;27.20;5.30;;;;;;;26.71;19.90;101076.85;105699;1266;73219;-81
2023/05/09 06:27:22;;;;;;;20.30;4.30;;;;;;;26.99;19.87;101077.04;105727;1267;68298;-81
2023/05/09 06:30:11;;;;;;;19.10;4.20;;;;;;;27.31;19.24;101077.58;106063;1262;71414;-77
2023/05/09 06:33:13;;;;;;;15.50;3.80;;;;;;;27.35;19.00;101070.36;105666;1260;59583;-80
2023/05/09 06:36:02;;;;;;;20.70;10.10;;;;;;;27.51;18.90;101068.77;105682;1262;60269;-75
2023/05/09 06:38:50;;;;;;;16.30;4.60;;;;;;;28.10;18.79;101069.10;106258;1254;72834;-80
2023/05/09 06:41:39;;;;;;;13.80;4.10;;;;;;;28.41;18.24;101069.32;106022;1254;67474;-82
2023/05/09 06:44:28;;;;;;;9.60;3.50;;;;;;;28.70;17.56;101071.09;107273;1256;72408;-81
2023/05/09 06:47:20;;;;;;;12.10;3.90;;;;;;;28.73;17.09;101066.30;106580;1259;59715;-81
2023/05/09 06:50:08;;;;;;;12.80;3.90;;;;;;;28.91;16.82;101064.53;106529;1256;60372;-78
2023/05/09 06:52:57;;;;;;;10.00;3.90;;;;;;;28.67;16.92;101063.33;105993;1261;72589;-80
2023/05/09 06:55:45;;;;;;;10.70;4.30;;;;;;;28.36;17.18;101060.86;106009;1256;68287;-81
2023/05/09 06:58:35;;;;;;;13.50;3.90;;;;;;;28.36;17.64;101061.63;106307;1260;72575;-79
2023/05/09 07:01:23;;;;;;;11.40;3.70;;;;;;;28.70;17.44;101062.91;106177;1256;59610;-82
2023/05/09 07:04:14;;;;;;;8.80;3.60;;;;;;;28.88;16.94;101063.48;106221;1254;60110;-82
2023/05/09 07:07:02;;;;;;;8.90;3.60;;;;;;;28.66;16.89;101055.49;107128;1254;73643;-80
2023/05/09 07:09:51;;;;;;;8.70;3.30;;;;;;;28.64;17.12;101048.98;106923;1254;66590;-80
2023/05/09 07:12:52;;;;;;;9.20;3.60;;;;;;;28.51;17.35;101045.96;107050;1259;73902;-79
2023/05/09 07:15:44;;;;;;;9.90;3.60;;;;;;;28.66;17.18;101040.98;106659;1254;59628;-76
2023/05/09 07:18:33;;;;;;;13.10;3.80;;;;;;;28.82;17.01;101039.10;107303;1255;59978;-78
2023/05/09 07:21:22;;;;;;;12.40;3.30;;;;;;;28.93;16.75;101035.40;108162;1256;71779;-77
2023/05/09 07:24:10;;;;;;;9.40;2.80;;;;;;;29.12;16.11;101025.98;105929;1255;68020;-77
2023/05/09 07:27:03;;;;;;;9.40;3.10;;;;;;;29.23;15.87;101034.41;107758;1257;73426;-75
2023/05/09 07:29:51;;;;;;;7.70;2.80;;;;;;;29.18;15.58;101026.05;106162;1256;59646;-76
2023/05/09 07:32:40;;;;;;;8.80;2.80;;;;;;;29.25;14.87;101028.02;105849;1256;59639;-80
2023/05/09 07:35:28;;;;;;;9.80;2.90;;;;;;;28.45;15.01;101030.39;106114;1259;71885;-79
2023/05/09 07:38:46;;;;;;;9.30;2.90;;;;;;;28.52;15.15;101023.39;107483;1256;68761;-76
2023/05/09 07:41:35;;;;;;;8.50;2.90;;;;;;;28.48;14.57;101019.99;106054;1257;74739;-78
2023/05/09 07:44:42;;;;;;;9.90;3.00;;;;;;;28.37;15.00;101011.42;106363;1256;60334;-74
2023/05/09 07:47:30;;;;;;;11.20;3.30;;;;;;;28.59;14.84;101021.52;106085;1255;61112;-78
2023/05/09 07:50:27;;;;;;;10.00;2.90;;;;;;;28.66;14.92;101014.55;107141;1256;72122;-79
2023/05/09 07:53:15;;;;;;;9.30;2.90;;;;;;;28.98;14.75;101011.05;108117;1258;68016;-78
2023/05/09 07:56:05;;;;;;;9.10;3.20;;;;;;;29.12;14.68;101014.06;107597;1255;72444;-79
2023/05/09 07:58:54;;;;;;;8.00;3.00;;;;;;;29.01;15.28;101011.27;105998;1259;59754;-78
2023/05/09 08:01:43;;;;;;;9.20;3.30;;;;;;;28.63;15.00;101014.95;105953;1259;60117;-79
2023/05/09 08:04:36;;;;;;;8.80;3.10;;;;;;;28.52;15.29;101001.88;105968;1259;73067;-76
2023/05/09 08:07:28;;;;;;;8.90;3.50;;;;;;;28.42;15.11;101003.80;106002;1259;67898;-78
2023/05/09 08:10:16;;;;;;;7.50;3.00;;;;;;;28.30;15.34;100998.89;105853;1259;73147;-77
2023/05/09 08:13:08;;;;;;;11.40;3.30;;;;;;;28.31;15.10;100994.89;105872;1259;59762;-78
2023/05/09 08:15:56;;;;;;;11.50;3.70;;;;;;;28.00;15.65;100999.23;105698;1264;59811;-76
2023/05/09 08:18:45;;;;;;;8.80;3.70;;;;;;;28.13;16.09;100991.78;105944;1259;73069;-79
2023/05/09 08:21:34;;;;;;;8.80;2.80;;;;;;;28.63;15.68;100984.95;106089;1259;66423;-78
2023/05/09 08:24:22;;;;;;;10.30;3.30;;;;;;;27.86;15.50;100978.74;106105;1259;72733;-80
2023/05/09 08:27:12;;;;;;;9.80;3.60;;;;;;;27.27;15.82;100985.73;106076;1260;59750;-77
2023/05/09 08:30:01;;;;;;;9.10;3.70;;;;;;;27.44;15.63;100973.77;105936;1256;60419;-80
2023/05/09 08:32:50;;;;;;;10.70;3.40;;;;;;;27.29;15.72;100979.70;105839;1267;72621;-80
2023/05/09 08:35:46;;;;;;;9.40;3.10;;;;;;;27.10;15.87;100971.35;106056;1260;68062;-81
2023/05/09 08:38:42;;;;;;;8.80;3.50;;;;;;;27.28;15.73;100971.73;106260;1259;71118;-80
2023/05/09 08:41:34;;;;;;;8.00;3.30;;;;;;;27.42;15.57;100962.64;105742;1263;59684;-79
2023/05/09 08:44:23;;;;;;;7.40;3.10;;;;;;;27.54;15.70;100960.12;105747;1261;60376;-82
2023/05/09 08:47:12;;;;;;;10.50;3.30;;;;;;;27.79;15.48;100956.45;105694;1263;72807;-81
2023/05/09 08:50:03;;;;;;;8.60;3.00;;;;;;;28.20;15.69;100952.44;105937;1265;66828;-78
2023/05/09 08:52:53;;;;;;;7.90;3.00;;;;;;;28.56;14.86;100954.98;105766;1261;71650;-81
2023/05/09 08:55:41;;;;;;;8.80;3.40;;;;;;;28.20;14.73;100954.52;105670;1265;59534;-79
2023/05/09 08:58:30;;;;;;;10.00;3.50;;;;;;;28.04;15.09;100957.29;105615;1265;59342;-79
2023/05/09 09:01:19;;;;;;;9.80;3.40;;;;;;;28.08;15.01;100959.24;105630;1265;73780;-80
2023/05/09 09:04:10;;;;;;;8.40;3.80;;;;;;;27.89;14.98;100954.18;105513;1262;66696;-80
2023/05/09 09:07:00;;;;;;;12.80;4.20;;;;;;;27.43;15.45;100955.61;105669;1262;71550;-79
2023/05/09 09:09:51;;;;;;;10.00;4.00;;;;;;;27.24;16.07;100949.39;105660;1267;60348;-79
2023/05/09 09:12:41;;;;;;;9.40;3.70;;;;;;;27.16;15.45;100946.95;105997;1260;61010;-78
2023/05/09 09:15:37;;;;;;;8.70;3.30;;;;;;;27.16;15.55;100932.83;106465;1263;72757;-83
2023/05/09 09:18:32;;;;;;;10.60;4.20;;;;;;;26.34;16.12;100956.52;106314;1259;66390;-82
2023/05/09 09:21:22;;;;;;;8.90;4.20;;;;;;;26.15;16.56;100944.86;106009;1259;72570;-80
2023/05/09 09:24:20;;;;;;;10.90;4.20;;;;;;;26.33;16.67;100945.56;106263;1263;59600;-80
2023/05/09 09:27:10;;;;;;;8.60;3.50;;;;;;;26.03;16.58;100948.95;106636;1263;59563;-80
2023/05/09 09:30:11;;;;;;;10.10;3.50;;;;;;;26.14;16.21;100936.90;105979;1263;73157;-76
2023/05/09 09:33:05;;;;;;;7.90;3.60;;;;;;;26.23;15.82;100937.80;106746;1259;67557;-79
2023/05/09 09:35:56;;;;;;;8.20;3.90;;;;;;;25.80;16.56;100941.48;105878;1259;72727;-77
2023/05/09 09:38:46;;;;;;;10.30;4.50;;;;;;;25.72;17.18;100939.48;105442;1263;59511;-72
2023/05/09 09:41:38;;;;;;;9.90;4.20;;;;;;;25.80;17.11;100936.41;105636;1259;59757;-79
2023/05/09 09:44:26;;;;;;;8.90;3.90;;;;;;;25.97;16.98;100926.44;106739;1259;73034;-78
2023/05/09 09:47:14;;;;;;;8.40;3.60;;;;;;;26.35;17.08;100921.88;105889;1261;66388;-75
2023/05/09 09:50:18;;;;;;;8.40;3.50;;;;;;;27.02;16.33;100925.79;106087;1259;71391;-76
2023/05/09 09:53:07;;;;;;;8.60;3.50;;;;;;;27.74;15.92;100919.23;105424;1260;59855;-75
2023/05/09 09:55:55;;;;;;;8.10;3.50;;;;;;;27.55;15.15;100924.84;105921;1259;60091;-78
2023/05/09 09:58:44;;;;;;;8.40;3.50;;;;;;;26.81;15.22;100919.63;106630;1259;70827;-76
2023/05/09 10:01:33;;;;;;;8.10;3.70;;;;;;;26.63;15.47;100926.14;106422;1259;66622;-77
2023/05/09 10:04:23;;;;;;;10.20;3.70;;;;;;;26.35;16.38;100924.72;105846;1264;73259;-74
2023/05/09 10:07:12;;;;;;;9.50;4.40;;;;;;;26.20;16.46;100915.11;105779;1257;60165;-73
2023/05/09 10:10:04;;;;;;;9.40;4.10;;;;;;;25.89;16.78;100909.28;105805;1256;60108;-72
2023/05/09 10:13:03;;;;;;;7.90;3.60;;;;;;;25.96;16.95;100907.58;105955;1256;74023;-73
2023/05/09 10:15:52;;;;;;;10.60;4.00;;;;;;;25.93;16.62;100905.65;105681;1264;66667;-75
2023/05/09 10:18:41;;;;;;;9.90;4.00;;;;;;;25.82;16.69;100907.27;105803;1257;71423;-77
2023/05/09 10:21:31;;;;;;;9.90;3.90;;;;;;;26.22;16.63;100899.41;105854;1255;59733;-75
2023/05/09 10:24:33;;;;;;;11.00;4.10;;;;;;;26.45;16.73;100891.49;106012;1261;60067;-77
2023/05/09 10:27:26;;;;;;;7.90;3.70;;;;;;;26.65;16.50;100884.39;105841;1256;73344;-75
2023/05/09 10:30:21;;;;;;;8.50;3.90;;;;;;;26.85;16.62;100874.84;106028;1257;66810;-75
2023/05/09 10:33:11;;;;;;;9.70;3.40;;;;;;;26.68;16.62;100865.63;105857;1255;72417;-76
2023/05/09 10:36:01;;;;;;;9.30;3.80;;;;;;;26.58;16.80;100869.00;105728;1256;59770;-75
2023/05/09 10:38:55;;;;;;;9.50;3.80;;;;;;;26.50;17.13;100873.27;105888;1259;59550;-74
2023/05/09 10:41:44;;;;;;;10.10;3.60;;;;;;;26.83;17.12;100868.23;105809;1261;73080;-74
2023/05/09 10:44:32;;;;;;;12.60;4.30;;;;;;;27.52;16.90;100857.70;105657;1256;66705;-74
2023/05/09 10:47:22;;;;;;;11.40;4.30;;;;;;;27.55;16.47;100858.73;105706;1257;72409;-75
2023/05/09 10:50:12;;;;;;;8.70;4.20;;;;;;;26.63;18.22;100851.96;106034;1256;59836;-75
2023/05/09 10:53:15;;;;;;;10.20;4.80;;;;;;;26.86;19.15;100840.69;105895;1255;60047;-75
2023/05/09 10:56:04;;;;;;;9.40;4.20;;;;;;;27.39;19.04;100839.70;106131;1257;72228;-75
2023/05/09 10:58:53;;;;;;;9.10;4.10;;;;;;;27.42;19.26;100835.23;105976;1256;66669;-77
2023/05/09 11:01:41;;;;;;;13.60;4.40;;;;;;;28.02;18.80;100831.50;105957;1255;71086;-74
2023/05/09 11:04:32;;;;;;;12.00;4.60;;;;;;;27.54;18.85;100836.20;105986;1258;59734;-77
2023/05/09 11:07:25;;;;;;;10.80;5.20;;;;;;;27.33;19.46;100820.61;106062;1259;59780;-77
2023/05/09 11:10:19;;;;;;;9.80;4.10;;;;;;;27.80;18.56;100816.54;105925;1256;71749;-75
2023/05/09 11:13:08;;;;;;;9.40;4.50;;;;;;;27.97;18.38;100818.30;105912;1256;67007;-75
2023/05/09 11:16:00;;;;;;;9.50;4.50;;;;;;;27.99;18.96;100821.59;105909;1260;73595;-74
2023/05/09 11:18:52;;;;;;;10.60;4.60;;;;;;;27.55;19.29;100816.17;105831;1259;59984;-75
2023/05/09 11:22:02;;;;;;;13.50;4.40;;;;;;;27.28;20.15;100814.05;105656;1263;59579;-76
2023/05/09 11:25:06;;;;;;;10.30;4.00;;;;;;;26.95;20.07;100804.02;106282;1263;73107;-83
2023/05/09 11:28:02;;;;;;;12.60;4.30;;;;;;;26.65;20.34;100794.15;105554;1259;66658;-80
2023/05/09 11:30:51;;;;;;;10.50;4.20;;;;;;;26.57;19.80;100799.42;105766;1259;72755;-77
2023/05/09 11:33:45;;;;;;;9.50;4.30;;;;;;;26.25;20.00;100796.59;106612;1259;59506;-79
2023/05/09 11:36:35;;;;;;;11.80;4.00;;;;;;;25.67;20.97;100800.23;106607;1259;59377;-74
2023/05/09 11:39:24;;;;;;;11.40;3.80;;;;;;;25.20;21.69;100801.34;105798;1259;73310;-78
2023/05/09 11:42:12;;;;;;;17.00;4.40;;;;;;;24.76;21.79;100799.08;105601;1259;67763;-74
2023/05/09 11:45:00;;;;;;;9.30;3.30;;;;;;;24.30;22.30;100786.70;105734;1259;71929;-76
2023/05/09 11:47:50;;;;;;;10.90;3.70;;;;;;;23.82;22.41;100780.91;105598;1259;59590;-77
2023/05/09 11:50:39;;;;;;;9.90;3.40;;;;;;;23.10;23.18;100776.98;105556;1259;60249;-75
2023/05/09 11:53:28;;;;;;;13.80;3.50;;;;;;;22.47;23.83;100777.21;106048;1259;73026;-76
2023/05/09 11:56:21;;;;;;;10.50;3.90;;;;;;;21.87;24.51;100771.95;106253;1255;66338;-77
2023/05/09 11:59:13;;;;;;;10.10;4.30;;;;;;;21.35;25.30;100764.45;105984;1256;71093;-72
2023/05/09 12:02:06;;;;;;;11.60;3.70;;;;;;;20.91;26.30;100764.85;106241;1263;59741;-77
2023/05/09 12:04:54;;;;;;;11.70;4.10;;;;;;;20.60;26.46;100765.47;105677;1260;59680;-74
2023/05/09 12:07:43;;;;;;;10.50;4.30;;;;;;;20.35;26.94;100762.84;105951;1259;71588;-73
2023/05/09 12:10:36;;;;;;;12.00;3.90;;;;;;;20.11;27.56;100762.52;105928;1260;69081;-74
2023/05/09 12:13:25;;;;;;;13.20;4.70;;;;;;;19.93;27.68;100757.54;105770;1262;72564;-74
2023/05/09 12:16:19;;;;;;;12.10;4.00;;;;;;;19.51;27.77;100753.98;105835;1256;59688;-73
2023/05/09 12:19:10;;;;;;;11.80;4.10;;;;;;;19.19;28.17;100743.11;105686;1256;60598;-73
2023/05/09 12:22:02;;;;;;;11.30;3.60;;;;;;;19.07;28.59;100737.34;105754;1261;71447;-72
2023/05/09 12:24:50;;;;;;;12.20;4.10;;;;;;;19.12;28.79;100739.19;105742;1259;68444;-70
2023/05/09 12:27:41;;;;;;;11.40;4.10;;;;;;;19.14;28.78;100725.48;105820;1256;73004;-72
2023/05/09 12:30:31;;;;;;;13.40;4.40;;;;;;;18.95;28.20;100730.45;106334;1255;59743;-72
2023/05/09 12:33:20;;;;;;;10.00;4.00;;;;;;;18.90;29.09;100738.30;105732;1258;60380;-71
2023/05/09 12:36:12;;;;;;;10.90;4.10;;;;;;;18.88;29.08;100743.27;106215;1257;73731;-70
2023/05/09 12:39:00;;;;;;;9.40;4.00;;;;;;;18.62;29.11;100729.85;105848;1255;67613;-69
2023/05/09 12:41:50;;;;;;;11.20;4.60;;;;;;;18.57;29.50;100725.51;106309;1256;73401;-69
2023/05/09 12:44:50;;;;;;;11.00;4.30;;;;;;;18.61;29.36;100719.13;105851;1256;59742;-70
2023/05/09 12:47:40;;;;;;;11.60;4.50;;;;;;;18.57;29.72;100716.12;105724;1261;61916;-67
2023/05/09 12:50:35;;;;;;;10.50;4.20;;;;;;;18.53;30.25;100712.77;105801;1256;73032;-70
2023/05/09 12:53:30;;;;;;;10.50;4.00;;;;;;;18.54;30.34;100707.45;105663;1259;68015;-71
2023/05/09 12:56:23;;;;;;;11.50;4.40;;;;;;;18.54;29.74;100699.88;105761;1259;72857;-71
2023/05/09 12:59:13;;;;;;;12.40;4.10;;;;;;;18.50;29.33;100694.69;105887;1260;59695;-70
2023/05/09 13:02:01;;;;;;;12.40;4.30;;;;;;;18.49;30.04;100694.88;105632;1256;60281;-70
2023/05/09 13:05:14;;;;;;;12.10;4.10;;;;;;;18.51;29.99;100689.18;105697;1256;72304;-69